Time;durP1;ratioP1;P1;durP2;ratioP2;P2;SDS_P1;SDS_P2;PMS_P1;PMS_P2;Temp;Humidity;BMP_temperature;BMP_pressure;BME280_temperature;BME280_humidity;BME280_pressure;Samples;Min_cycle;Max_cycle;Signal;HPM_P1;HPM_P2
2023/10/04 00:00:20;;;;;;;7.80;5.40;;;;;;;7.93;100.00;97876.46;110178;1242;68265;-60
2023/10/04 00:03:12;;;;;;;8.20;5.30;;;;;;;7.93;100.00;97879.23;110172;1243;59756;-61
2023/10/04 00:05:43;;;;;;;7.20;4.90;;;;;;;7.93;100.00;97881.34;110192;1242;59760;-61
2023/10/04 00:08:13;;;;;;;9.80;5.40;;;;;;;7.93;100.00;97883.96;110195;1248;70660;-61
2023/10/04 00:10:45;;;;;;;9.30;5.90;;;;;;;7.93;100.00;97881.70;110198;1241;68425;-61
2023/10/04 00:13:15;;;;;;;8.20;5.20;;;;;;;7.93;100.00;97875.80;110137;1242;69203;-61
2023/10/04 00:15:44;;;;;;;7.10;4.90;;;;;;;7.93;100.00;97879.77;110133;1245;59654;-61
2023/10/04 00:18:17;;;;;;;9.10;5.60;;;;;;;7.92;100.00;97879.64;110182;1242;59750;-61
2023/10/04 00:20:47;;;;;;;10.40;6.30;;;;;;;7.92;100.00;97880.88;110197;1242;71397;-61
2023/10/04 00:23:18;;;;;;;9.20;5.70;;;;;;;7.90;100.00;97881.46;110136;1247;69296;-61
2023/10/04 00:25:52;;;;;;;9.80;5.90;;;;;;;7.90;100.00;97882.20;110180;1247;68391;-61
2023/10/04 00:28:22;;;;;;;8.10;5.30;;;;;;;7.90;100.00;97883.41;110155;1243;59681;-61
2023/10/04 00:30:52;;;;;;;;;;;;;;;7.91;100.00;97889.05;110160;1243;59680;-61
2023/10/04 00:33:28;;;;;;;9.70;5.50;;;;;;;7.89;100.00;97888.80;110136;1242;70811;-61
2023/10/04 00:36:03;;;;;;;8.80;4.90;;;;;;;7.89;100.00;97888.49;110156;1241;69267;-59
2023/10/04 00:38:37;;;;;;;10.00;6.10;;;;;;;7.87;99.91;97891.20;110186;1242;69272;-60
2023/10/04 00:41:11;;;;;;;11.50;7.70;;;;;;;7.84;99.69;97887.39;110158;1241;59701;-60
2023/10/04 00:43:50;;;;;;;10.50;7.50;;;;;;;7.81;100.00;97881.80;110154;1243;59683;-60
2023/10/04 00:46:22;;;;;;;9.80;7.00;;;;;;;7.78;100.00;97883.35;110204;1251;71217;-59
2023/10/04 00:48:54;;;;;;;11.30;6.40;;;;;;;7.76;100.00;97879.50;110093;1245;69256;-62
2023/10/04 00:51:26;;;;;;;11.10;7.20;;;;;;;7.70;100.00;97882.06;110149;1242;68158;-62
2023/10/04 00:53:56;;;;;;;11.30;6.60;;;;;;;7.60;100.00;97885.88;110091;1242;59638;-59
2023/10/04 00:56:28;;;;;;;8.30;6.10;;;;;;;7.51;100.00;97888.42;110162;1243;59692;-59
2023/10/04 00:59:03;;;;;;;11.20;5.60;;;;;;;7.46;100.00;97894.45;110122;1245;71995;-59
2023/10/04 01:01:40;;;;;;;9.30;5.90;;;;;;;7.41;100.00;97894.52;110183;1247;69228;-59
2023/10/04 01:04:13;;;;;;;10.30;6.10;;;;;;;7.37;100.00;97896.27;110159;1241;68564;-59
2023/10/04 01:06:47;;;;;;;10.30;6.30;;;;;;;7.36;100.00;97893.58;110124;1241;60119;-59
2023/10/04 01:09:19;;;;;;;7.20;4.90;;;;;;;7.34;100.00;97894.52;110187;1250;59697;-60
2023/10/04 01:11:53;;;;;;;8.00;4.90;;;;;;;7.34;100.00;97897.64;110076;1245;69771;-61
2023/10/04 01:14:32;;;;;;;6.80;4.40;;;;;;;7.33;100.00;97901.72;110200;1242;69221;-61
2023/10/04 01:17:12;;;;;;;7.30;4.30;;;;;;;7.30;100.00;97901.55;110185;1242;69334;-61
2023/10/04 01:19:44;;;;;;;8.00;5.30;;;;;;;7.27;100.00;97903.96;110194;1243;59751;-61
2023/10/04 01:22:16;;;;;;;9.20;5.00;;;;;;;7.24;100.00;97901.45;110150;1245;59680;-60
2023/10/04 01:24:48;;;;;;;7.30;5.00;;;;;;;7.24;100.00;97897.34;110143;1242;71411;-60
2023/10/04 01:27:20;;;;;;;7.90;4.50;;;;;;;7.22;100.00;97896.04;110124;1242;68312;-61
2023/10/04 01:29:52;;;;;;;8.00;4.50;;;;;;;7.20;100.00;97896.64;110158;1240;68526;-60
2023/10/04 01:32:24;;;;;;;6.80;4.40;;;;;;;7.18;100.00;97900.76;110107;1246;59735;-60
2023/10/04 01:34:59;;;;;;;6.80;4.90;;;;;;;7.17;100.00;97895.95;110180;1242;59712;-61
2023/10/04 01:37:34;;;;;;;9.70;5.30;;;;;;;7.15;100.00;97890.66;110180;1242;71516;-61
2023/10/04 01:40:12;;;;;;;7.40;4.80;;;;;;;7.14;100.00;97889.33;110129;1241;69264;-60
2023/10/04 01:42:45;;;;;;;7.50;4.60;;;;;;;7.14;100.00;97883.61;110176;1241;68755;-60
2023/10/04 01:45:18;;;;;;;7.80;4.90;;;;;;;7.13;100.00;97881.05;110054;1241;59722;-61
2023/10/04 01:47:50;;;;;;;9.20;5.10;;;;;;;7.12;100.00;97879.70;110171;1242;59670;-61
2023/10/04 01:50:24;;;;;;;8.40;5.10;;;;;;;7.10;100.00;97878.05;110160;1243;70610;-60
2023/10/04 01:52:57;;;;;;;6.00;4.40;;;;;;;7.08;100.00;97882.89;110180;1242;69256;-61
2023/10/04 01:55:29;;;;;;;8.70;5.50;;;;;;;7.05;100.00;97881.96;110152;1242;68537;-60
2023/10/04 01:58:01;;;;;;;6.70;4.70;;;;;;;7.03;100.00;97883.29;110115;1246;59747;-60
2023/10/04 02:00:35;;;;;;;6.30;4.40;;;;;;;7.04;100.00;97881.38;110174;1241;59792;-60
2023/10/04 02:03:09;;;;;;;7.70;4.60;;;;;;;7.03;100.00;97878.25;110165;1242;70917;-60
2023/10/04 02:05:42;;;;;;;8.70;5.40;;;;;;;7.00;100.00;97875.32;110160;1243;69288;-60
2023/10/04 02:08:15;;;;;;;12.20;6.40;;;;;;;6.93;100.00;97874.80;110157;1241;69299;-60
2023/10/04 02:10:46;;;;;;;6.20;4.50;;;;;;;6.85;100.00;97871.58;110139;1243;59625;-60
2023/10/04 02:13:19;;;;;;;6.80;4.60;;;;;;;6.78;100.00;97868.45;110223;1246;59689;-61
2023/10/04 02:15:52;;;;;;;7.20;4.80;;;;;;;6.73;100.00;97861.65;110155;1242;71318;-60
2023/10/04 02:18:26;;;;;;;5.70;4.00;;;;;;;6.70;100.00;97861.60;110136;1243;68938;-62
2023/10/04 02:20:58;;;;;;;7.20;4.70;;;;;;;6.65;100.00;97859.75;110154;1248;69106;-61
2023/10/04 02:23:33;;;;;;;7.20;4.50;;;;;;;6.61;100.00;97861.69;110186;1241;59708;-61
2023/10/04 02:26:09;;;;;;;7.40;4.70;;;;;;;6.56;100.00;97870.41;110192;1242;59653;-61
2023/10/04 02:28:42;;;;;;;8.00;4.40;;;;;;;6.51;100.00;97871.18;110195;1242;71203;-61
2023/10/04 02:31:16;;;;;;;7.20;5.20;;;;;;;6.47;100.00;97876.94;110165;1246;69107;-61
2023/10/04 02:33:52;;;;;;;9.00;5.70;;;;;;;6.44;100.00;97880.20;110169;1242;69318;-61
2023/10/04 02:36:30;;;;;;;7.60;4.60;;;;;;;6.44;100.00;97886.08;110223;1241;59637;-61
2023/10/04 02:39:06;;;;;;;8.00;5.10;;;;;;;6.44;100.00;97883.50;110203;1245;59725;-61
2023/10/04 02:41:36;;;;;;;7.10;4.80;;;;;;;6.43;100.00;97879.89;110168;1242;71236;-61
2023/10/04 02:44:08;;;;;;;7.40;5.40;;;;;;;6.39;100.00;97884.05;110190;1241;68469;-62
2023/10/04 02:46:44;;;;;;;10.20;6.60;;;;;;;6.33;100.00;97878.84;110138;1242;69379;-60
2023/10/04 02:49:14;;;;;;;7.10;4.90;;;;;;;6.24;100.00;97884.60;110119;1244;59737;-60
2023/10/04 02:51:47;;;;;;;9.00;5.70;;;;;;;6.19;100.00;97889.36;110212;1243;59714;-60
2023/10/04 02:54:19;;;;;;;7.60;5.50;;;;;;;6.15;100.00;97892.14;110208;1241;71502;-60
2023/10/04 02:56:50;;;;;;;7.70;4.70;;;;;;;6.12;100.00;97895.02;110109;1246;69355;-60
2023/10/04 02:59:20;;;;;;;6.70;4.70;;;;;;;6.11;100.00;97892.67;110096;1241;68879;-60
2023/10/04 03:01:51;;;;;;;7.30;4.20;;;;;;;6.12;100.00;97892.98;110184;1242;59821;-60
2023/10/04 03:04:26;;;;;;;6.00;4.00;;;;;;;6.13;100.00;97893.63;110152;1246;59701;-60
2023/10/04 03:06:59;;;;;;;6.30;3.60;;;;;;;6.12;100.00;97893.64;110128;1245;72049;-60
2023/10/04 03:09:29;;;;;;;7.40;4.80;;;;;;;6.11;100.00;97892.14;110185;1242;69176;-60
2023/10/04 03:12:00;;;;;;;;;;;;;;;6.09;100.00;97891.35;110132;1245;69170;-60
2023/10/04 03:14:32;;;;;;;8.80;4.70;;;;;;;6.07;100.00;97894.77;110126;1244;59775;-60
2023/10/04 03:17:03;;;;;;;8.60;5.00;;;;;;;6.06;100.00;97900.35;110236;1243;59681;-60
2023/10/04 03:19:36;;;;;;;6.50;4.60;;;;;;;6.07;100.00;97902.36;110153;1245;71231;-60
2023/10/04 03:22:06;;;;;;;6.10;4.40;;;;;;;6.07;100.00;97898.90;110231;1243;69055;-60
2023/10/04 03:24:36;;;;;;;5.40;4.30;;;;;;;6.09;100.00;97897.77;110158;1241;69137;-59
2023/10/04 03:27:08;;;;;;;8.60;4.30;;;;;;;6.08;100.00;97898.69;110094;1245;59691;-60
2023/10/04 03:29:39;;;;;;;6.50;4.00;;;;;;;6.08;100.00;97894.90;110201;1245;59739;-60
2023/10/04 03:32:09;;;;;;;6.10;4.40;;;;;;;6.07;100.00;97893.89;110209;1241;71522;-61
2023/10/04 03:34:40;;;;;;;7.20;5.10;;;;;;;6.06;100.00;97897.05;110180;1243;69402;-60
2023/10/04 03:37:14;;;;;;;6.40;4.30;;;;;;;6.05;100.00;97900.35;110241;1243;69209;-60
2023/10/04 03:39:45;;;;;;;7.60;4.60;;;;;;;6.07;100.00;97901.52;110190;1242;59737;-62
2023/10/04 03:42:16;;;;;;;8.20;4.60;;;;;;;6.06;100.00;97901.55;110074;1244;59748;-60
2023/10/04 03:44:48;;;;;;;6.30;4.50;;;;;;;6.06;100.00;97900.52;110001;1245;71238;-60
2023/10/04 03:47:20;;;;;;;9.30;6.00;;;;;;;6.06;100.00;97903.64;110207;1250;68382;-60
2023/10/04 03:49:51;;;;;;;6.80;4.20;;;;;;;6.09;100.00;97906.10;110207;1240;70060;-60
2023/10/04 03:52:25;;;;;;;6.70;3.90;;;;;;;6.10;100.00;97908.44;110130;1246;59692;-61
2023/10/04 03:54:56;;;;;;;5.60;4.20;;;;;;;6.10;100.00;97899.98;110121;1245;60155;-61
2023/10/04 03:57:27;;;;;;;8.40;5.00;;;;;;;6.09;100.00;97900.86;110178;1241;70651;-60
2023/10/04 03:59:58;;;;;;;6.60;4.70;;;;;;;6.12;100.00;97901.30;110142;1241;68660;-59
2023/10/04 04:02:30;;;;;;;7.00;4.80;;;;;;;6.13;100.00;97898.25;109766;1245;68551;-59
2023/10/04 04:05:05;;;;;;;6.60;5.00;;;;;;;6.13;100.00;97900.89;109898;1251;59801;-59
2023/10/04 04:07:37;;;;;;;6.90;4.90;;;;;;;6.12;100.00;97908.70;110188;1241;59670;-60
2023/10/04 04:10:14;;;;;;;7.00;4.50;;;;;;;6.10;100.00;97908.10;110188;1243;70593;-58
2023/10/04 04:12:46;;;;;;;6.80;4.30;;;;;;;6.07;100.00;97911.02;110138;1242;68817;-59
2023/10/04 04:15:19;;;;;;;5.10;3.60;;;;;;;6.04;100.00;97912.02;110047;1245;69339;-59
2023/10/04 04:17:50;;;;;;;7.80;4.30;;;;;;;6.03;100.00;97915.38;110149;1242;59728;-59
2023/10/04 04:20:23;;;;;;;6.60;4.00;;;;;;;6.02;100.00;97921.84;109936;1244;59666;-59
2023/10/04 04:22:53;;;;;;;8.00;5.00;;;;;;;5.98;100.00;97921.46;110074;1245;71247;-60
2023/10/04 04:25:26;;;;;;;5.90;3.20;;;;;;;5.95;100.00;97921.10;110121;1246;69305;-59
2023/10/04 04:27:59;;;;;;;6.20;4.70;;;;;;;5.93;100.00;97923.80;110059;1245;69755;-59
2023/10/04 04:30:35;;;;;;;5.70;4.60;;;;;;;5.93;100.00;97927.06;110131;1244;59743;-59
2023/10/04 04:33:07;;;;;;;7.70;4.60;;;;;;;5.95;100.00;97928.55;110030;1241;59631;-59
2023/10/04 04:35:47;;;;;;;6.10;4.50;;;;;;;5.96;100.00;97929.20;110125;1243;72225;-59
2023/10/04 04:38:19;;;;;;;8.30;4.60;;;;;;;5.98;100.00;97930.84;109962;1244;68298;-59
2023/10/04 04:40:52;;;;;;;8.10;4.80;;;;;;;6.00;100.00;97925.02;110139;1240;69867;-62
2023/10/04 04:45:56;;;;;;;6.30;4.00;;;;;;;6.06;100.00;97930.61;110194;1242;59739;-59
2023/10/04 04:48:35;;;;;;;6.70;3.90;;;;;;;6.10;100.00;97937.20;110052;1245;71934;-59
2023/10/04 04:51:14;;;;;;;6.20;3.80;;;;;;;6.15;100.00;97934.38;110165;1241;69424;-58
2023/10/04 04:53:50;;;;;;;6.60;4.20;;;;;;;6.19;100.00;97934.90;110124;1242;69631;-60
2023/10/04 04:56:24;;;;;;;8.00;4.40;;;;;;;6.25;100.00;97934.95;110181;1241;59670;-60
2023/10/04 04:59:04;;;;;;;5.30;3.70;;;;;;;6.33;100.00;97941.98;110179;1243;59702;-61
2023/10/04 05:01:35;;;;;;;7.20;4.20;;;;;;;6.42;100.00;97940.19;110096;1244;71548;-60
2023/10/04 05:04:06;;;;;;;;;;;;;;;6.52;100.00;97942.63;110048;1244;69808;-60
2023/10/04 05:06:36;;;;;;;6.20;3.70;;;;;;;6.69;100.00;97938.17;110170;1242;68541;-60
2023/10/04 05:09:06;;;;;;;6.00;3.40;;;;;;;6.92;100.00;97942.25;110180;1242;59696;-59
2023/10/04 05:11:36;;;;;;;6.70;4.10;;;;;;;7.17;100.00;97948.30;110178;1242;59693;-60
2023/10/04 05:14:06;;;;;;;;;;;;;;;7.39;100.00;97950.46;110075;1244;72075;-60
2023/10/04 05:16:36;;;;;;;7.70;3.90;;;;;;;7.61;100.00;97955.90;110075;1242;68663;-59
2023/10/04 05:19:10;;;;;;;5.90;3.80;;;;;;;7.85;100.00;97957.95;110049;1244;69322;-60
2023/10/04 05:21:40;;;;;;;8.40;5.20;;;;;;;8.13;100.00;97955.05;110104;1249;59732;-60
2023/10/04 05:24:10;;;;;;;5.80;4.00;;;;;;;8.44;100.00;97962.41;110062;1245;59684;-60
2023/10/04 05:26:39;;;;;;;5.00;4.00;;;;;;;8.80;100.00;97963.20;110076;1246;71789;-60
2023/10/04 05:29:09;;;;;;;5.80;4.40;;;;;;;9.16;100.00;97968.76;110078;1244;69932;-60
2023/10/04 05:31:40;;;;;;;6.90;4.80;;;;;;;9.46;100.00;97977.29;110036;1245;69161;-60
2023/10/04 05:34:10;;;;;;;6.80;4.30;;;;;;;9.72;100.00;97975.71;110072;1242;59697;-60
2023/10/04 05:36:41;;;;;;;7.70;4.80;;;;;;;10.04;100.00;97972.88;110075;1244;59664;-60
2023/10/04 05:39:11;;;;;;;8.80;5.10;;;;;;;10.38;100.00;97974.44;110192;1243;71469;-60
2023/10/04 05:41:41;;;;;;;6.80;5.10;;;;;;;10.66;100.00;97977.17;110175;1242;69195;-60
2023/10/04 05:44:11;;;;;;;10.20;5.70;;;;;;;10.89;99.61;97979.89;110186;1242;68512;-60
2023/10/04 05:46:44;;;;;;;8.00;5.30;;;;;;;11.26;99.65;97974.00;110187;1241;59637;-60
2023/10/04 05:49:14;;;;;;;13.30;6.30;;;;;;;11.52;96.16;97978.30;110157;1245;59719;-59
2023/10/04 05:51:45;;;;;;;14.10;6.80;;;;;;;11.58;92.12;97981.55;110096;1242;71586;-60
2023/10/04 05:54:15;;;;;;;10.50;7.10;;;;;;;11.56;91.49;97982.45;110146;1250;70258;-59
2023/10/04 05:56:44;;;;;;;10.60;7.40;;;;;;;11.73;91.77;97983.00;110152;1242;69220;-59
2023/10/04 05:59:15;;;;;;;8.70;6.40;;;;;;;11.98;90.90;97989.02;110054;1241;59654;-60
2023/10/04 06:01:44;;;;;;;10.10;5.50;;;;;;;12.37;92.10;97990.95;110077;1242;59681;-60
2023/10/04 06:04:13;;;;;;;10.30;7.40;;;;;;;12.68;88.88;97996.42;110073;1245;72020;-60
2023/10/04 06:06:45;;;;;;;9.20;6.10;;;;;;;13.10;91.64;97997.60;110034;1241;70058;-60
2023/10/04 06:09:26;;;;;;;8.90;5.60;;;;;;;13.55;91.37;98002.30;110091;1245;69879;-60
2023/10/04 06:11:56;;;;;;;7.90;5.60;;;;;;;14.03;85.74;97997.42;110045;1245;59764;-60
2023/10/04 06:14:26;;;;;;;7.10;5.40;;;;;;;14.44;83.67;97996.15;110054;1245;59636;-60
2023/10/04 06:16:56;;;;;;;9.90;5.80;;;;;;;14.62;80.18;97997.84;110099;1251;71169;-61
2023/10/04 06:19:25;;;;;;;;;;;;;;;14.77;77.66;97996.00;110050;1244;69523;-60
2023/10/04 06:21:59;;;;;;;7.20;5.00;;;;;;;15.02;79.05;97995.67;110179;1241;69089;-61
2023/10/04 06:24:29;;;;;;;;;;;;;;;15.49;80.96;97992.32;110170;1242;59737;-59
2023/10/04 06:26:58;;;;;;;9.60;5.70;;;;;;;15.82;77.16;97992.63;110159;1242;59647;-59
2023/10/04 06:29:28;;;;;;;10.10;5.20;;;;;;;15.70;72.75;97991.15;110181;1240;70753;-60
2023/10/04 06:31:57;;;;;;;8.30;5.80;;;;;;;15.95;72.59;97995.19;110201;1243;68580;-61
2023/10/04 06:34:27;;;;;;;8.90;4.80;;;;;;;16.17;72.57;97994.52;110146;1242;68590;-60
2023/10/04 06:36:56;;;;;;;6.40;4.40;;;;;;;16.37;70.49;97994.15;110217;1241;59705;-60
2023/10/04 06:39:27;;;;;;;6.60;4.20;;;;;;;16.67;69.29;98000.17;110203;1241;59706;-61
2023/10/04 06:41:58;;;;;;;8.30;4.60;;;;;;;16.94;69.24;98006.22;110077;1244;71987;-61
2023/10/04 06:44:28;;;;;;;7.10;4.50;;;;;;;17.09;67.27;98009.82;110208;1241;69290;-61
2023/10/04 06:47:00;;;;;;;8.90;4.80;;;;;;;17.57;65.44;98011.81;110156;1241;69269;-61
2023/10/04 06:49:30;;;;;;;6.70;4.10;;;;;;;17.67;65.64;98012.86;110189;1241;59759;-60
2023/10/04 06:52:01;;;;;;;6.70;4.20;;;;;;;17.33;65.44;98015.21;110217;1242;59745;-60
2023/10/04 06:54:30;;;;;;;;;;;;;;;17.24;66.82;98014.48;110245;1242;71782;-61
2023/10/04 06:57:00;;;;;;;7.90;4.00;;;;;;;17.06;67.02;98015.17;110216;1243;69569;-61
2023/10/04 06:59:30;;;;;;;6.80;3.80;;;;;;;16.82;68.23;98011.16;110212;1242;69246;-61
2023/10/04 07:01:59;;;;;;;;;;;;;;;16.77;69.10;98015.98;110219;1240;59714;-62
2023/10/04 07:04:29;;;;;;;7.50;4.30;;;;;;;16.84;68.82;98014.20;110241;1243;59690;-61
2023/10/04 07:06:59;;;;;;;6.90;4.50;;;;;;;16.52;70.10;98016.23;109979;1241;71373;-62
2023/10/04 07:09:29;;;;;;;8.50;4.60;;;;;;;16.34;70.15;98020.13;110200;1242;69236;-61
2023/10/04 07:11:59;;;;;;;7.10;4.90;;;;;;;16.57;70.80;98017.58;110237;1243;69242;-60
2023/10/04 07:14:29;;;;;;;10.50;5.20;;;;;;;16.97;69.22;98015.69;110158;1243;59825;-60
2023/10/04 07:16:59;;;;;;;8.50;5.20;;;;;;;17.24;68.09;98012.52;110241;1241;59731;-61
2023/10/04 07:19:29;;;;;;;7.00;4.40;;;;;;;17.60;67.51;98012.59;110183;1243;70651;-61
2023/10/04 07:21:59;;;;;;;8.90;5.40;;;;;;;17.88;66.17;98011.29;110143;1241;68742;-61
2023/10/04 07:24:32;;;;;;;9.70;5.60;;;;;;;18.11;65.38;98006.75;110183;1241;69343;-61
2023/10/04 07:27:02;;;;;;;7.80;5.50;;;;;;;18.41;64.43;98002.34;110152;1242;59830;-61
2023/10/04 07:29:33;;;;;;;8.20;5.10;;;;;;;18.70;61.92;98004.50;110201;1241;59636;-60
2023/10/04 07:32:02;;;;;;;6.90;4.50;;;;;;;18.90;61.34;98004.54;110167;1241;71900;-62
2023/10/04 07:34:31;;;;;;;9.50;4.70;;;;;;;18.54;62.23;98011.77;110204;1249;69813;-60
2023/10/04 07:37:03;;;;;;;7.60;5.10;;;;;;;19.16;60.21;98010.50;110173;1242;69644;-61
2023/10/04 07:39:32;;;;;;;9.40;5.40;;;;;;;19.34;59.04;98006.20;110174;1242;59750;-61
2023/10/04 07:42:02;;;;;;;;;;;;;;;19.18;58.84;98000.34;110272;1242;59802;-61
2023/10/04 07:44:31;;;;;;;8.10;5.60;;;;;;;19.76;58.57;97997.60;110216;1242;70394;-60
2023/10/04 07:47:01;;;;;;;11.40;5.70;;;;;;;20.06;56.18;98000.00;110242;1241;68493;-61
2023/10/04 07:49:31;;;;;;;7.50;5.10;;;;;;;20.15;56.49;98002.98;110180;1242;69277;-60
2023/10/04 07:52:03;;;;;;;8.80;5.40;;;;;;;20.26;55.47;98010.02;110214;1242;59754;-61
2023/10/04 07:54:34;;;;;;;8.80;5.70;;;;;;;20.71;54.12;98005.83;110112;1241;59762;-61
2023/10/04 07:57:04;;;;;;;10.30;6.40;;;;;;;21.24;52.32;98004.33;110110;1244;71442;-61
2023/10/04 07:59:36;;;;;;;8.90;5.00;;;;;;;21.10;51.72;98001.79;110123;1244;69292;-60
2023/10/04 08:02:06;;;;;;;9.10;5.30;;;;;;;21.07;52.28;98004.77;110062;1244;69287;-60
2023/10/04 08:04:35;;;;;;;8.10;4.70;;;;;;;21.07;52.64;98003.81;110087;1244;59682;-60
2023/10/04 08:07:12;;;;;;;24.80;16.00;;;;;;;21.68;51.85;98002.40;110213;1242;59596;-60
2023/10/04 08:09:43;;;;;;;11.60;7.90;;;;;;;22.43;50.82;97995.95;110182;1242;70671;-60
2023/10/04 08:12:12;;;;;;;10.30;5.80;;;;;;;22.34;49.12;97996.69;110206;1242;69865;-61
2023/10/04 08:14:42;;;;;;;10.00;6.40;;;;;;;22.68;48.74;97992.89;110170;1242;69267;-61
2023/10/04 08:17:12;;;;;;;10.00;5.80;;;;;;;22.72;47.47;97992.84;110208;1242;59708;-61
2023/10/04 08:19:42;;;;;;;6.90;5.30;;;;;;;22.82;48.51;97989.02;110253;1242;59643;-60
2023/10/04 08:22:12;;;;;;;10.40;6.40;;;;;;;23.17;47.52;97983.77;110209;1241;70514;-60
2023/10/04 08:24:44;;;;;;;8.70;5.90;;;;;;;23.63;46.30;97986.42;110215;1241;69390;-60
2023/10/04 08:27:13;;;;;;;8.30;5.90;;;;;;;24.06;46.25;97986.61;110224;1241;69319;-60
2023/10/04 08:29:44;;;;;;;15.70;10.50;;;;;;;24.49;44.32;97981.13;110219;1242;59728;-60
2023/10/04 08:32:13;;;;;;;11.00;7.90;;;;;;;24.40;44.34;97977.80;110240;1242;59758;-60
2023/10/04 08:34:43;;;;;;;22.50;13.70;;;;;;;24.55;43.74;97974.21;110249;1242;71010;-60
2023/10/04 08:37:13;;;;;;;22.30;15.10;;;;;;;24.81;44.47;97973.40;110228;1242;67400;-60
2023/10/04 08:39:44;;;;;;;12.40;8.20;;;;;;;25.03;42.58;97970.81;110090;1244;69106;-60
2023/10/04 08:42:14;;;;;;;8.90;6.60;;;;;;;25.20;41.79;97970.31;110056;1243;59688;-60
2023/10/04 08:44:43;;;;;;;7.50;5.40;;;;;;;24.90;42.09;97965.48;110080;1245;59764;-60
2023/10/04 08:47:14;;;;;;;9.00;5.90;;;;;;;24.87;43.07;97968.98;110039;1242;71720;-61
2023/10/04 08:49:50;;;;;;;9.20;6.20;;;;;;;24.47;43.06;97976.73;110085;1241;69938;-60
2023/10/04 08:52:24;;;;;;;8.40;5.30;;;;;;;24.30;42.95;97976.33;110118;1241;68311;-61
2023/10/04 08:55:07;;;;;;;9.60;6.70;;;;;;;24.73;42.64;97975.14;110136;1244;59728;-61
2023/10/04 08:57:39;;;;;;;7.60;5.60;;;;;;;24.31;43.49;97975.44;110148;1245;59703;-61
2023/10/04 09:00:18;;;;;;;9.00;6.60;;;;;;;23.68;44.73;97978.30;110150;1243;71397;-61
2023/10/04 09:03:00;;;;;;;7.30;5.40;;;;;;;24.75;42.47;97975.86;110150;1244;70508;-59
2023/10/04 09:05:33;;;;;;;10.30;6.10;;;;;;;24.77;42.20;97972.56;110107;1243;69117;-61
2023/10/04 09:08:04;;;;;;;9.70;5.70;;;;;;;25.30;42.11;97973.33;109635;1244;705464;-62
2023/10/04 09:10:36;;;;;;;10.90;6.00;;;;;;;25.40;41.12;97976.52;110122;1244;59682;-60
2023/10/04 09:13:05;;;;;;;11.40;7.90;;;;;;;25.87;41.11;97971.81;110137;1244;71730;-60
2023/10/04 09:15:34;;;;;;;8.80;6.40;;;;;;;25.98;39.94;97972.06;110181;1241;69039;-60
2023/10/04 09:18:04;;;;;;;10.30;6.70;;;;;;;25.85;40.67;97971.73;110149;1243;68660;-60
2023/10/04 09:20:35;;;;;;;8.60;5.60;;;;;;;26.32;40.53;97967.52;110134;1244;60138;-61
2023/10/04 09:23:16;;;;;;;11.50;6.90;;;;;;;26.93;39.24;97967.69;110186;1244;59667;-61
2023/10/04 09:25:46;;;;;;;9.00;6.60;;;;;;;27.13;39.11;97972.90;110161;1244;70687;-61
2023/10/04 09:28:18;;;;;;;11.30;7.60;;;;;;;27.54;37.96;97974.79;110151;1241;68748;-60
2023/10/04 09:30:47;;;;;;;9.40;7.20;;;;;;;27.48;38.06;97977.30;110132;1241;69316;-60
2023/10/04 09:33:32;;;;;;;8.60;6.30;;;;;;;27.33;38.06;97977.33;110168;1243;59844;-60
2023/10/04 09:36:02;;;;;;;10.00;6.40;;;;;;;27.48;37.54;97974.05;110200;1244;59714;-60
2023/10/04 09:38:35;;;;;;;;;;;;;;;27.13;37.49;97972.89;110148;1244;72163;-61
2023/10/04 09:41:04;;;;;;;8.30;5.40;;;;;;;26.93;37.65;97976.73;110175;1244;68491;-60
2023/10/04 09:43:39;;;;;;;8.30;5.40;;;;;;;26.42;37.79;97982.03;110130;1242;68690;-60
2023/10/04 09:46:10;;;;;;;6.30;4.30;;;;;;;26.06;37.98;97988.43;110155;1243;59702;-61
2023/10/04 09:48:49;;;;;;;8.20;5.30;;;;;;;26.87;37.79;97977.15;110160;1241;59686;-60
2023/10/04 09:51:21;;;;;;;7.10;5.00;;;;;;;27.86;35.92;97976.54;110162;1244;70452;-60
2023/10/04 09:53:49;;;;;;;7.20;4.90;;;;;;;27.44;35.59;97974.29;110110;1243;69255;-60
2023/10/04 09:56:20;;;;;;;6.90;4.70;;;;;;;26.83;36.60;97971.64;110128;1244;68353;-60
2023/10/04 09:58:53;;;;;;;7.50;4.90;;;;;;;27.31;36.49;97967.10;110102;1248;59687;-60
2023/10/04 10:01:25;;;;;;;9.30;5.90;;;;;;;28.45;35.46;97966.45;110139;1241;59742;-60
2023/10/04 10:04:07;;;;;;;8.30;5.30;;;;;;;28.06;35.18;97965.64;110124;1244;70437;-60
2023/10/04 10:06:47;;;;;;;10.20;6.90;;;;;;;27.98;35.31;97967.75;110130;1244;69771;-60
2023/10/04 10:09:22;;;;;;;7.30;5.50;;;;;;;27.84;34.87;97969.84;110099;1244;68347;-60
2023/10/04 10:11:54;;;;;;;8.60;4.90;;;;;;;28.81;35.04;97966.12;110096;1243;59761;-60
2023/10/04 10:14:27;;;;;;;7.70;5.10;;;;;;;29.55;33.60;97964.45;110150;1241;59799;-60
2023/10/04 10:16:57;;;;;;;12.50;7.80;;;;;;;28.69;33.62;97964.70;110159;1244;71509;-60
2023/10/04 10:19:29;;;;;;;11.20;7.90;;;;;;;28.76;33.65;97967.39;110133;1241;68584;-60
2023/10/04 10:22:11;;;;;;;8.80;6.10;;;;;;;28.46;33.35;97968.94;110178;1243;69248;-61
2023/10/04 10:24:48;;;;;;;10.40;6.90;;;;;;;28.91;33.83;97967.02;110168;1242;59704;-61
2023/10/04 10:27:23;;;;;;;8.80;6.10;;;;;;;29.61;32.45;97967.12;110181;1244;59702;-60
2023/10/04 10:29:52;;;;;;;7.10;5.50;;;;;;;29.92;32.06;97961.48;110116;1243;71766;-60
2023/10/04 10:32:23;;;;;;;7.30;5.70;;;;;;;30.94;32.09;97953.72;110125;1241;68854;-60
2023/10/04 10:34:58;;;;;;;7.90;5.40;;;;;;;31.51;31.00;97954.12;110113;1242;69154;-60
2023/10/04 10:37:27;;;;;;;7.90;6.30;;;;;;;32.01;30.43;97950.50;110162;1241;59737;-60
2023/10/04 10:39:56;;;;;;;7.00;5.80;;;;;;;32.27;29.64;97954.31;110100;1244;59757;-60
2023/10/04 10:42:26;;;;;;;9.50;6.20;;;;;;;32.70;28.67;97948.84;110156;1244;71650;-60
2023/10/04 10:45:25;;;;;;;8.40;5.70;;;;;;;32.50;28.09;97947.45;110108;1243;69826;-60
2023/10/04 10:47:57;;;;;;;6.80;4.70;;;;;;;31.93;28.68;97947.27;110171;1244;68340;-60
2023/10/04 10:50:38;;;;;;;5.90;3.80;;;;;;;32.26;26.90;97948.30;110163;1243;59676;-60
2023/10/04 10:53:13;;;;;;;5.20;3.40;;;;;;;32.82;27.24;97949.02;110122;1241;59700;-61
2023/10/04 10:55:43;;;;;;;6.00;3.60;;;;;;;32.75;26.39;97950.98;110130;1243;71377;-61
2023/10/04 10:58:12;;;;;;;6.60;4.10;;;;;;;32.92;26.29;97951.98;110158;1244;69849;-60
2023/10/04 11:00:42;;;;;;;5.90;4.40;;;;;;;33.23;25.97;97951.37;110147;1243;70663;-60
2023/10/04 11:03:13;;;;;;;6.30;4.00;;;;;;;33.29;25.77;97951.24;110127;1243;59709;-61
2023/10/04 11:05:42;;;;;;;5.60;4.20;;;;;;;33.48;25.84;97954.70;110181;1244;59636;-61
2023/10/04 11:08:12;;;;;;;6.60;4.70;;;;;;;33.78;26.48;97953.23;110197;1244;71983;-61
2023/10/04 11:10:41;;;;;;;6.70;4.70;;;;;;;33.67;26.08;97953.61;110178;1241;68331;-60
2023/10/04 11:13:17;;;;;;;7.30;5.00;;;;;;;33.35;26.56;97951.54;110207;1244;68856;-61
2023/10/04 11:15:47;;;;;;;7.80;5.30;;;;;;;33.72;26.75;97951.62;110169;1243;59697;-60
2023/10/04 11:18:17;;;;;;;8.10;4.90;;;;;;;33.27;26.34;97947.09;110237;1243;59667;-61
2023/10/04 11:20:46;;;;;;;6.30;4.80;;;;;;;32.99;26.75;97944.52;110162;1241;71985;-61
2023/10/04 11:23:15;;;;;;;6.10;4.80;;;;;;;33.42;26.98;97947.20;110178;1244;68460;-60
2023/10/04 11:25:45;;;;;;;6.80;4.40;;;;;;;33.40;26.97;97943.32;110179;1241;68736;-61
2023/10/04 11:28:14;;;;;;;7.00;4.40;;;;;;;33.79;26.11;97947.55;110158;1244;59707;-60
2023/10/04 11:30:43;;;;;;;6.30;4.50;;;;;;;33.50;26.45;97940.63;110200;1244;59689;-61
2023/10/04 11:33:13;;;;;;;6.80;4.80;;;;;;;33.94;26.62;97940.52;110191;1241;72106;-61
2023/10/04 11:35:43;;;;;;;7.90;5.00;;;;;;;33.82;26.47;97937.95;110177;1244;69673;-61
2023/10/04 11:38:19;;;;;;;7.60;4.40;;;;;;;34.05;25.60;97937.64;110141;1244;68535;-61
2023/10/04 11:40:49;;;;;;;5.70;4.10;;;;;;;34.78;25.51;97930.24;110125;1244;59711;-61
2023/10/04 11:43:24;;;;;;;5.90;4.30;;;;;;;34.96;24.54;97927.84;110164;1243;59713;-61
2023/10/04 11:46:00;;;;;;;7.30;4.80;;;;;;;34.38;25.29;97933.16;110162;1243;71980;-62
2023/10/04 11:48:29;;;;;;;6.80;4.40;;;;;;;34.57;25.68;97928.08;110167;1243;69347;-61
2023/10/04 11:51:04;;;;;;;7.40;3.80;;;;;;;34.46;25.72;97930.18;110118;1248;70087;-60